createdAt,value
2019-03-16T00:01:07.492Z,2.07
2019-03-16T00:03:37.993Z,2.10
2019-03-16T00:06:08.429Z,2.57
2019-03-16T00:08:39.215Z,1.90
2019-03-16T00:11:09.953Z,2.17
2019-03-16T00:13:40.704Z,1.57
2019-03-16T00:16:11.160Z,1.87
2019-03-16T00:18:42.017Z,2.40
2019-03-16T00:21:12.506Z,2.27
2019-03-16T00:23:43.268Z,2.17
2019-03-16T00:26:13.697Z,2.33
2019-03-16T00:28:44.147Z,2.07
2019-03-16T00:31:14.929Z,2.27
2019-03-16T00:33:45.403Z,1.97
2019-03-16T00:36:15.835Z,1.60
2019-03-16T00:38:46.259Z,1.60
2019-03-16T00:41:16.720Z,1.90
2019-03-16T00:43:47.560Z,1.97
2019-03-16T00:46:18.015Z,2.10
2019-03-16T00:48:48.444Z,1.97
2019-03-16T00:51:18.929Z,2.17
2019-03-16T00:56:16.648Z,2.00
2019-03-16T00:58:47.120Z,2.50
2019-03-16T01:01:17.577Z,2.40
2019-03-16T01:03:48.004Z,2.23
2019-03-16T01:06:18.460Z,2.20
2019-03-16T01:08:48.892Z,2.33
2019-03-16T01:11:19.382Z,2.40
2019-03-16T01:13:50.258Z,2.57
2019-03-16T01:16:20.683Z,1.77
2019-03-16T01:18:51.458Z,2.33
2019-03-16T01:21:21.888Z,2.27
2019-03-16T01:23:52.365Z,2.17
2019-03-16T01:26:22.966Z,2.10
2019-03-16T01:28:53.391Z,2.60
2019-03-16T01:31:23.864Z,2.10
2019-03-16T01:33:54.311Z,1.83
2019-03-16T01:36:24.732Z,2.10
2019-03-16T01:38:55.223Z,2.20
2019-03-16T01:41:26.025Z,2.40
2019-03-16T01:43:56.931Z,2.33
2019-03-16T01:46:27.383Z,2.50
2019-03-16T01:48:57.815Z,2.30
2019-03-16T01:51:28.289Z,2.60
2019-03-16T01:53:58.716Z,2.33
2019-03-16T01:56:29.152Z,2.17
2019-03-16T01:58:59.677Z,2.00
2019-03-16T02:01:30.313Z,1.90
2019-03-16T02:04:01.484Z,2.53
2019-03-16T02:06:32.589Z,2.37
2019-03-16T02:09:03.020Z,2.27
2019-03-16T02:11:33.473Z,2.20
2019-03-16T02:14:03.897Z,2.17
2019-03-16T02:16:34.370Z,2.30
2019-03-16T02:19:04.796Z,1.90
2019-03-16T02:21:35.295Z,2.23
2019-03-16T02:24:05.761Z,2.30
2019-03-16T02:26:36.187Z,2.53
2019-03-16T02:29:06.676Z,2.00
2019-03-16T02:31:37.105Z,2.50
2019-03-16T02:34:07.597Z,2.00
2019-03-16T02:36:41.120Z,2.13
2019-03-16T02:39:11.550Z,2.30
2019-03-16T02:41:42.393Z,2.10
2019-03-16T02:44:12.827Z,2.73
2019-03-16T02:46:43.255Z,2.30
2019-03-16T02:49:13.702Z,1.87
2019-03-16T02:51:44.152Z,2.13
2019-03-16T02:54:14.633Z,2.33
2019-03-16T02:56:45.381Z,2.10
2019-03-16T02:59:15.819Z,2.90
2019-03-16T03:01:46.276Z,2.13
2019-03-16T03:04:17.696Z,1.60
2019-03-16T03:06:48.172Z,2.33
2019-03-16T03:09:18.610Z,2.00
2019-03-16T03:11:49.028Z,1.93
2019-03-16T03:14:19.516Z,2.47
2019-03-16T03:16:50.025Z,2.07
2019-03-16T03:19:20.782Z,2.47
2019-03-16T03:21:51.235Z,1.80
2019-03-16T03:24:21.660Z,2.20
2019-03-16T03:26:52.367Z,1.80
2019-03-16T03:29:23.212Z,1.93
2019-03-16T03:31:53.649Z,2.07
2019-03-16T03:34:24.527Z,1.67
2019-03-16T03:36:54.961Z,2.00
2019-03-16T03:39:25.388Z,2.17
2019-03-16T03:41:56.405Z,1.87
2019-03-16T03:44:26.892Z,2.20
2019-03-16T03:46:57.313Z,2.10
2019-03-16T03:49:27.732Z,1.87
2019-03-16T03:51:58.186Z,1.73
2019-03-16T03:54:29.046Z,2.10
2019-03-16T03:56:59.517Z,2.77
2019-03-16T03:59:29.960Z,2.20
2019-03-16T04:02:00.396Z,2.43
2019-03-16T04:04:30.882Z,1.93
2019-03-16T04:07:01.597Z,2.00
2019-03-16T04:09:32.277Z,2.90
2019-03-16T04:12:03.185Z,2.17
2019-03-16T04:14:33.659Z,1.93
2019-03-16T04:17:04.810Z,2.13
2019-03-16T04:19:35.223Z,1.83
2019-03-16T04:22:06.132Z,2.17
2019-03-16T04:24:36.605Z,2.13
2019-03-16T04:27:15.880Z,2.37
2019-03-16T04:29:39.203Z,2.07
2019-03-16T04:32:10.033Z,2.10
2019-03-16T04:34:40.462Z,2.27
2019-03-16T04:37:11.269Z,2.10
2019-03-16T04:39:41.746Z,2.23
2019-03-16T04:42:12.181Z,2.43
2019-03-16T04:44:42.967Z,2.33
2019-03-16T04:47:13.425Z,2.30
2019-03-16T04:49:43.864Z,2.17
2019-03-16T04:52:14.578Z,2.20
2019-03-16T04:54:45.079Z,2.30
2019-03-16T04:57:15.521Z,2.40
2019-03-16T04:59:46.224Z,2.07
2019-03-16T05:02:16.700Z,1.83
2019-03-16T05:04:47.519Z,1.90
2019-03-16T05:07:18.297Z,2.03
2019-03-16T05:09:48.804Z,2.20
2019-03-16T05:12:19.228Z,2.43
2019-03-16T05:14:49.660Z,1.93
2019-03-16T05:17:20.133Z,2.37
2019-03-16T05:19:50.928Z,2.20
2019-03-16T05:22:21.363Z,2.50
2019-03-16T05:24:52.206Z,1.83
2019-03-16T05:27:22.936Z,2.23
2019-03-16T05:29:53.364Z,2.10
2019-03-16T05:32:24.304Z,2.47
2019-03-16T05:34:56.856Z,2.40
2019-03-16T05:37:27.517Z,2.10
2019-03-16T05:39:58.033Z,2.10
2019-03-16T05:42:28.787Z,2.20
2019-03-16T05:44:59.520Z,2.00
2019-03-16T05:47:30.030Z,2.07
2019-03-16T05:50:00.470Z,1.97
2019-03-16T05:52:30.852Z,2.00
2019-03-16T05:55:01.329Z,2.70
2019-03-16T05:57:31.759Z,2.00
2019-03-16T06:00:02.192Z,2.40
2019-03-16T06:02:33.048Z,2.40
2019-03-16T06:05:10.366Z,2.60
2019-03-16T06:07:35.701Z,2.23
2019-03-16T06:10:06.488Z,2.40
2019-03-16T06:12:36.918Z,2.33
2019-03-16T06:15:07.511Z,2.53
2019-03-16T06:17:38.010Z,2.30
2019-03-16T06:20:09.223Z,1.57
2019-03-16T06:22:40.064Z,1.70
2019-03-16T06:25:10.956Z,2.40
2019-03-16T06:27:41.759Z,1.97
2019-03-16T06:30:12.226Z,1.50
2019-03-16T06:32:43.264Z,1.70
2019-03-16T06:35:23.872Z,1.67
2019-03-16T06:37:45.838Z,1.70
2019-03-16T06:40:16.342Z,1.57
2019-03-16T06:42:46.787Z,1.40
2019-03-16T06:45:17.233Z,1.40
2019-03-16T06:47:48.047Z,1.73
2019-03-16T06:50:18.783Z,1.70
2019-03-16T06:52:49.217Z,1.50
2019-03-16T06:55:19.693Z,1.67
2019-03-16T06:57:50.123Z,1.70
2019-03-16T07:00:20.554Z,1.40
2019-03-16T07:02:51.342Z,1.37
2019-03-16T07:05:23.678Z,1.33
2019-03-16T07:07:53.909Z,1.53
2019-03-16T07:10:24.384Z,1.87
2019-03-16T07:12:54.819Z,2.23
2019-03-16T07:15:25.243Z,1.63
2019-03-16T07:17:55.993Z,1.63
2019-03-16T07:20:26.803Z,2.20
2019-03-16T07:22:57.300Z,1.37
2019-03-16T07:25:27.847Z,1.40
2019-03-16T07:27:58.359Z,2.00
2019-03-16T07:30:28.795Z,1.83
2019-03-16T07:32:59.252Z,1.77
2019-03-16T07:35:29.694Z,1.37
2019-03-16T07:38:00.365Z,1.80
2019-03-16T07:40:30.790Z,1.30
2019-03-16T07:43:01.599Z,1.50
2019-03-16T07:45:32.469Z,2.20
2019-03-16T07:48:02.899Z,2.00
2019-03-16T07:50:33.432Z,1.37
2019-03-16T07:53:03.900Z,1.60
2019-03-16T07:55:34.334Z,1.57
2019-03-16T07:58:04.768Z,1.57
2019-03-16T08:00:35.221Z,1.60
2019-03-16T08:03:05.691Z,1.40
2019-03-16T08:05:36.474Z,1.70
2019-03-16T08:08:06.991Z,1.43
2019-03-16T08:10:37.507Z,1.90
2019-03-16T08:13:08.272Z,1.80
2019-03-16T08:15:38.756Z,1.47
2019-03-16T08:18:09.572Z,1.10
2019-03-16T08:20:40.074Z,1.70
2019-03-16T08:23:10.819Z,1.53
2019-03-16T08:25:41.592Z,1.37
2019-03-16T08:28:12.476Z,1.67
2019-03-16T08:30:43.238Z,1.60
2019-03-16T08:33:13.675Z,1.83
2019-03-16T08:35:44.509Z,1.80
2019-03-16T08:38:14.983Z,2.20
2019-03-16T08:40:45.619Z,1.80
2019-03-16T08:43:16.055Z,2.00
2019-03-16T08:45:46.493Z,1.50
2019-03-16T08:48:22.695Z,1.70
2019-03-16T08:50:49.491Z,1.70
2019-03-16T08:53:22.752Z,2.10
2019-03-16T08:55:52.106Z,1.57
2019-03-16T08:58:23.472Z,1.73
2019-03-16T09:00:54.004Z,1.60
2019-03-16T09:03:25.171Z,1.70
2019-03-16T09:05:55.943Z,1.80
2019-03-16T09:08:26.376Z,1.50
2019-03-16T09:10:56.889Z,1.60
2019-03-16T09:13:27.696Z,1.40
2019-03-16T09:15:58.857Z,1.47
2019-03-16T09:18:30.288Z,1.60
2019-03-16T09:21:01.046Z,2.20
2019-03-16T09:23:31.794Z,1.93
2019-03-16T09:26:02.232Z,1.30
2019-03-16T09:28:34.047Z,1.70
2019-03-16T09:31:05.411Z,2.07
2019-03-16T09:33:35.848Z,4.60
2019-03-16T09:36:06.618Z,5.13
2019-03-16T09:38:37.053Z,4.77
2019-03-16T09:41:07.591Z,3.10
2019-03-16T09:43:38.012Z,2.20
2019-03-16T09:46:08.436Z,2.40
2019-03-16T09:48:38.931Z,2.13
2019-03-16T09:51:09.691Z,2.60
2019-03-16T09:53:40.119Z,2.70
2019-03-16T09:56:10.576Z,2.27
2019-03-16T09:58:41.048Z,2.13
2019-03-16T10:01:11.811Z,2.20
2019-03-16T10:03:42.243Z,2.43
2019-03-16T10:06:12.720Z,2.80
2019-03-16T10:08:43.167Z,2.50
2019-03-16T10:11:13.591Z,2.87
2019-03-16T10:13:44.074Z,3.20
2019-03-16T10:16:15.228Z,2.50
2019-03-16T10:18:45.664Z,2.80
2019-03-16T10:21:18.718Z,2.87
2019-03-16T10:23:48.557Z,3.00
2019-03-16T10:26:18.996Z,3.43
2019-03-16T10:28:49.815Z,3.50
2019-03-16T10:31:20.685Z,4.83
2019-03-16T10:33:51.136Z,3.30
2019-03-16T10:36:21.690Z,3.17
2019-03-16T10:38:52.439Z,3.90
2019-03-16T10:41:23.225Z,3.67
2019-03-16T10:43:54.753Z,3.87
2019-03-16T10:46:25.193Z,3.87
2019-03-16T10:48:56.057Z,3.97
2019-03-16T10:51:27.824Z,3.80
2019-03-16T10:53:58.371Z,4.33
2019-03-16T10:56:28.848Z,4.27
2019-03-16T10:58:59.278Z,4.50
2019-03-16T11:01:29.714Z,4.80
2019-03-16T11:04:00.209Z,4.10
2019-03-16T11:06:31.069Z,4.23
2019-03-16T11:09:01.509Z,4.33
2019-03-16T11:11:31.996Z,5.13
2019-03-16T11:14:02.440Z,5.83
2019-03-16T11:16:32.905Z,5.13
2019-03-16T11:19:03.865Z,4.47
2019-03-16T11:21:34.671Z,6.23
2019-03-16T11:24:05.511Z,5.93
2019-03-16T11:26:35.964Z,5.93
2019-03-16T11:29:09.310Z,7.83
2019-03-16T11:31:38.893Z,5.00
2019-03-16T11:34:09.620Z,5.13
2019-03-16T11:36:40.161Z,4.30
2019-03-16T11:39:10.654Z,4.93
2019-03-16T11:41:41.087Z,3.90
2019-03-16T11:44:12.226Z,4.23
2019-03-16T11:46:42.833Z,4.33
2019-03-16T11:49:13.281Z,3.40
2019-03-16T11:51:44.020Z,3.40
2019-03-16T11:54:14.458Z,3.57
2019-03-16T11:56:44.922Z,4.20
2019-03-16T11:59:21.442Z,3.83
2019-03-16T12:01:47.523Z,3.40
2019-03-16T12:04:17.964Z,4.30
2019-03-16T12:06:48.751Z,3.43
2019-03-16T12:09:19.245Z,3.83
2019-03-16T12:11:49.695Z,3.83
2019-03-16T12:14:20.947Z,4.00
2019-03-16T12:16:51.606Z,3.93
2019-03-16T12:19:22.124Z,3.50
2019-03-16T12:21:53.141Z,3.80
2019-03-16T12:24:23.643Z,3.63
2019-03-16T12:26:54.091Z,3.63
2019-03-16T12:29:33.468Z,3.50
2019-03-16T12:31:57.086Z,2.97
2019-03-16T12:34:27.533Z,2.80
2019-03-16T12:36:58.295Z,3.00
2019-03-16T12:39:29.147Z,3.23
2019-03-16T12:41:59.944Z,2.43
2019-03-16T12:44:30.722Z,2.30
2019-03-16T12:47:01.154Z,2.30
2019-03-16T12:49:31.935Z,2.00
2019-03-16T12:52:02.730Z,1.93
2019-03-16T12:54:33.463Z,1.90
2019-03-16T12:57:03.935Z,1.90
2019-03-16T12:59:46.147Z,1.30
2019-03-16T13:02:07.212Z,1.87
2019-03-16T13:04:38.295Z,1.57
2019-03-16T13:07:09.355Z,1.80
2019-03-16T13:09:42.420Z,2.03
2019-03-16T13:12:12.667Z,2.27
2019-03-16T13:14:43.195Z,1.93
2019-03-16T13:17:13.980Z,2.20
2019-03-16T13:19:44.481Z,2.17
2019-03-16T13:22:14.924Z,1.97
2019-03-16T13:24:45.355Z,1.80
2019-03-16T13:27:15.847Z,2.30
2019-03-16T13:29:58.167Z,2.03
2019-03-16T13:32:18.520Z,2.10
2019-03-16T13:34:49.355Z,1.80
2019-03-16T13:37:19.872Z,1.77
2019-03-16T13:39:50.619Z,2.00
2019-03-16T13:42:21.070Z,1.83
2019-03-16T13:44:51.556Z,1.70
2019-03-16T13:47:21.994Z,1.73
2019-03-16T13:49:52.756Z,1.70
2019-03-16T13:52:24.128Z,1.63
2019-03-16T13:54:54.875Z,1.40
2019-03-16T13:57:25.533Z,1.97
2019-03-16T13:59:55.963Z,1.50
2019-03-16T14:02:26.411Z,1.90
2019-03-16T14:04:57.323Z,1.73
2019-03-16T14:07:28.417Z,1.90
2019-03-16T14:10:00.712Z,1.70
2019-03-16T14:12:31.140Z,1.87
2019-03-16T14:15:01.601Z,1.80
2019-03-16T14:17:32.360Z,2.10
2019-03-16T14:20:03.545Z,2.37
2019-03-16T14:22:35.222Z,2.50
2019-03-16T14:25:07.404Z,1.90
2019-03-16T14:27:38.101Z,2.03
2019-03-16T14:30:10.433Z,1.80
2019-03-16T14:32:40.861Z,1.80
2019-03-16T14:35:11.636Z,1.70
2019-03-16T14:37:42.124Z,1.70
2019-03-16T14:40:13.061Z,1.80
2019-03-16T14:42:44.255Z,1.90
2019-03-16T14:45:16.558Z,1.90
2019-03-16T14:47:46.967Z,2.13
2019-03-16T14:50:18.414Z,1.90
2019-03-16T14:52:48.863Z,1.90
2019-03-16T14:55:19.450Z,1.90
2019-03-16T14:57:49.957Z,1.90
2019-03-16T15:00:20.692Z,1.90
2019-03-16T15:02:51.157Z,2.17
2019-03-16T15:05:22.293Z,1.83
2019-03-16T15:07:53.731Z,2.07
2019-03-16T15:10:24.249Z,1.83
2019-03-16T15:12:54.676Z,1.80
2019-03-16T15:15:25.508Z,1.80
2019-03-16T15:17:55.966Z,1.90
2019-03-16T15:20:26.418Z,1.90
2019-03-16T15:22:57.262Z,1.33
2019-03-16T15:25:27.709Z,1.93
2019-03-16T15:27:58.155Z,1.60
2019-03-16T15:30:28.628Z,1.40
2019-03-16T15:33:00.353Z,1.67
2019-03-16T15:35:31.061Z,1.10
2019-03-16T15:38:01.498Z,1.50
2019-03-16T15:40:33.060Z,1.73
2019-03-16T15:43:03.513Z,1.83
2019-03-16T15:45:33.941Z,1.60
2019-03-16T15:48:04.532Z,1.40
2019-03-16T15:50:35.277Z,1.67
2019-03-16T15:53:05.714Z,1.30
2019-03-16T15:55:36.198Z,1.47
2019-03-16T15:58:08.403Z,1.63
2019-03-16T16:00:39.126Z,1.30
2019-03-16T16:03:10.038Z,1.40
2019-03-16T16:05:40.925Z,1.50
2019-03-16T16:08:11.433Z,1.63
2019-03-16T16:10:44.217Z,1.40
2019-03-16T16:13:14.644Z,1.60
2019-03-16T16:15:45.123Z,1.30
2019-03-16T16:18:15.574Z,1.40
2019-03-16T16:20:46.072Z,1.40
2019-03-16T16:23:16.885Z,1.33
2019-03-16T16:25:47.321Z,1.60
2019-03-16T16:28:21.257Z,1.87
2019-03-16T16:30:51.797Z,2.00
2019-03-16T16:33:22.289Z,1.60
2019-03-16T16:35:53.792Z,1.83
2019-03-16T16:38:24.316Z,1.90
2019-03-16T16:40:55.041Z,1.80
2019-03-16T16:43:25.472Z,1.53
2019-03-16T16:45:55.919Z,1.90
2019-03-16T16:48:26.388Z,1.83
2019-03-16T16:50:57.667Z,2.07
2019-03-16T16:53:28.159Z,3.00
2019-03-16T16:55:58.623Z,2.60
2019-03-16T16:58:29.055Z,4.23
2019-03-16T17:00:59.509Z,2.00
2019-03-16T17:03:29.941Z,2.97
2019-03-16T17:06:00.757Z,3.80
2019-03-16T17:08:31.597Z,2.87
2019-03-16T17:11:02.324Z,3.33
2019-03-16T17:13:32.813Z,2.27
2019-03-16T17:16:03.278Z,2.60
2019-03-16T17:18:33.746Z,1.80
2019-03-16T17:21:04.599Z,2.60
2019-03-16T17:23:35.477Z,1.90
2019-03-16T17:26:07.024Z,1.40
2019-03-16T17:28:37.497Z,1.93
2019-03-16T17:31:11.480Z,2.30
2019-03-16T17:33:42.274Z,1.70
2019-03-16T17:36:12.753Z,2.03
2019-03-16T17:38:43.507Z,1.50
2019-03-16T17:41:14.033Z,1.67
2019-03-16T17:43:44.471Z,1.50
2019-03-16T17:46:14.918Z,1.70
2019-03-16T17:48:45.372Z,1.50
2019-03-16T17:51:16.475Z,1.73
2019-03-16T17:53:47.381Z,1.50
2019-03-16T17:56:17.844Z,1.70
2019-03-16T17:58:48.327Z,1.73
2019-03-16T18:01:18.780Z,1.50
2019-03-16T18:03:49.380Z,1.33
2019-03-16T18:06:19.865Z,1.50
2019-03-16T18:08:50.314Z,1.47
2019-03-16T18:11:20.740Z,1.50
2019-03-16T18:13:51.227Z,1.50
2019-03-16T18:16:21.997Z,1.47
2019-03-16T18:18:52.479Z,1.50
2019-03-16T18:21:23.396Z,1.40
2019-03-16T18:23:54.213Z,1.50
2019-03-16T18:26:24.692Z,1.30
2019-03-16T18:28:55.514Z,1.20
2019-03-16T18:31:26.055Z,1.17
2019-03-16T18:33:56.517Z,1.43
2019-03-16T18:36:26.958Z,1.47
2019-03-16T18:38:57.460Z,1.43
2019-03-16T18:41:27.897Z,1.37
2019-03-16T18:43:58.718Z,1.50
2019-03-16T18:46:29.894Z,1.30
2019-03-16T18:49:00.691Z,1.23
2019-03-16T18:51:31.497Z,1.47
2019-03-16T18:54:01.976Z,1.40
2019-03-16T18:56:32.765Z,1.27
2019-03-16T18:59:03.535Z,1.40
2019-03-16T19:01:34.010Z,1.40
2019-03-16T19:04:04.469Z,1.40
2019-03-16T19:06:35.181Z,1.43
2019-03-16T19:09:07.568Z,1.67
2019-03-16T19:11:38.041Z,1.67
2019-03-16T19:14:08.515Z,1.60
2019-03-16T19:16:39.277Z,1.70
2019-03-16T19:19:10.113Z,1.60
2019-03-16T19:21:41.201Z,1.70
2019-03-16T19:24:11.691Z,1.60
2019-03-16T19:26:42.412Z,1.80
2019-03-16T19:29:12.904Z,1.40
2019-03-16T19:31:44.236Z,1.43
2019-03-16T19:34:15.044Z,1.63
2019-03-16T19:36:45.884Z,1.47
2019-03-16T19:39:16.330Z,1.20
2019-03-16T19:41:46.812Z,1.33
2019-03-16T19:44:17.433Z,1.30
2019-03-16T19:46:47.916Z,1.63
2019-03-16T19:49:19.702Z,1.67
2019-03-16T19:51:50.630Z,1.33
2019-03-16T19:54:21.452Z,1.92
2019-03-16T19:56:51.961Z,2.00
2019-03-16T19:59:23.041Z,1.93
2019-03-16T20:01:53.470Z,1.97
2019-03-16T20:04:35.543Z,2.23
2019-03-16T20:06:57.186Z,2.00
2019-03-16T20:09:28.855Z,1.80
2019-03-16T20:11:59.304Z,1.67
2019-03-16T20:14:30.109Z,2.20
2019-03-16T20:17:00.948Z,1.60
2019-03-16T20:19:31.429Z,1.77
2019-03-16T20:22:02.252Z,1.70
2019-03-16T20:24:33.044Z,1.70
2019-03-16T20:27:06.682Z,1.80
2019-03-16T20:29:37.591Z,1.70
2019-03-16T20:32:08.053Z,2.10
2019-03-16T20:34:38.491Z,1.83
2019-03-16T20:37:09.357Z,1.73
2019-03-16T20:39:39.796Z,2.00
2019-03-16T20:42:10.279Z,1.80
2019-03-16T20:44:40.711Z,1.70
2019-03-16T20:47:11.141Z,1.80
2019-03-16T20:49:41.615Z,1.90
2019-03-16T20:52:12.639Z,1.60
2019-03-16T20:54:43.813Z,2.23
2019-03-16T20:57:14.315Z,1.53
2019-03-16T20:59:45.433Z,1.87
2019-03-16T21:02:15.931Z,1.90
2019-03-16T21:04:47.049Z,1.73
2019-03-16T21:07:17.533Z,2.03
2019-03-16T21:09:48.366Z,2.20
2019-03-16T21:12:20.423Z,1.90
2019-03-16T21:14:51.305Z,1.90
2019-03-16T21:17:22.161Z,2.03
2019-03-16T21:19:53.137Z,2.00
2019-03-16T21:22:34.921Z,2.50
2019-03-16T21:24:56.468Z,2.13
2019-03-16T21:27:28.726Z,2.30
2019-03-16T21:29:59.179Z,2.40
2019-03-16T21:32:30.420Z,2.27
2019-03-16T21:35:00.892Z,2.17
2019-03-16T21:37:31.341Z,2.60
2019-03-16T21:40:01.812Z,2.20
2019-03-16T21:42:32.276Z,2.50
2019-03-16T21:45:02.700Z,2.27
2019-03-16T21:47:33.611Z,2.33
2019-03-16T21:50:04.500Z,2.50
2019-03-16T21:52:34.929Z,2.40
2019-03-16T21:55:05.934Z,2.30
2019-03-16T21:57:36.372Z,2.57
2019-03-16T22:00:09.243Z,2.47
2019-03-16T22:02:39.685Z,2.50
2019-03-16T22:05:11.302Z,2.70
2019-03-16T22:07:41.799Z,2.40
2019-03-16T22:10:12.347Z,2.33
2019-03-16T22:12:43.159Z,2.07
2019-03-16T22:15:13.650Z,2.60
2019-03-16T22:17:44.391Z,2.63
2019-03-16T22:20:15.260Z,2.57
2019-03-16T22:22:45.695Z,2.57
2019-03-16T22:25:18.492Z,2.50
2019-03-16T22:27:51.600Z,2.37
2019-03-16T22:30:21.121Z,2.60
2019-03-16T22:32:51.582Z,2.40
2019-03-16T22:35:22.036Z,2.40
2019-03-16T22:37:52.732Z,2.00
2019-03-16T22:40:23.892Z,2.73
2019-03-16T22:42:54.330Z,2.20
2019-03-16T22:45:25.169Z,2.40
2019-03-16T22:47:55.593Z,2.30
2019-03-16T22:50:26.058Z,2.17
2019-03-16T22:52:56.565Z,2.30
2019-03-16T22:55:27.019Z,2.40
2019-03-16T22:57:57.457Z,2.27
2019-03-16T23:00:37.136Z,2.60
2019-03-16T23:03:06.740Z,2.40
2019-03-16T23:05:37.606Z,2.37
2019-03-16T23:08:08.059Z,2.13
2019-03-16T23:10:38.480Z,2.10
2019-03-16T23:13:09.289Z,2.17
2019-03-16T23:15:40.028Z,2.10
2019-03-16T23:18:10.460Z,2.47
2019-03-16T23:20:41.541Z,2.40
2019-03-16T23:23:12.008Z,3.00
2019-03-16T23:25:42.435Z,2.50
2019-03-16T23:28:12.946Z,3.73
2019-03-16T23:30:43.402Z,4.30
2019-03-16T23:33:13.884Z,5.00
2019-03-16T23:35:44.306Z,4.10
2019-03-16T23:38:14.732Z,3.90
2019-03-16T23:40:45.179Z,2.77
2019-03-16T23:43:15.983Z,3.20
2019-03-16T23:45:46.435Z,2.97
2019-03-16T23:48:17.963Z,2.80
2019-03-16T23:50:48.831Z,2.57
2019-03-16T23:53:19.251Z,2.43
2019-03-16T23:55:49.675Z,2.70
2019-03-16T23:58:20.148Z,2.90
